Time;durP1;ratioP1;P1;durP2;ratioP2;P2;SDS_P1;SDS_P2;PMS_P1;PMS_P2;Temp;Humidity;BMP_temperature;BMP_pressure;BME280_temperature;BME280_humidity;BME280_pressure;Samples;Min_cycle;Max_cycle;Signal;HPM_P1;HPM_P2
2021/11/13 00:02:17;;;;;;;59.43;30.33;;;;;;;12.78;65.30;100584.19;5071228;28;20044;-62
2021/11/13 00:04:44;;;;;;;68.33;31.07;;;;;;;12.84;66.17;100613.00;5075477;28;20079;-62
2021/11/13 00:07:11;;;;;;;58.40;31.23;;;;;;;12.76;66.30;100603.28;5086483;28;20049;-61
2021/11/13 00:09:39;;;;;;;56.43;30.33;;;;;;;12.87;65.98;100620.84;5074873;28;20135;-63
2021/11/13 00:12:06;;;;;;;62.87;33.53;;;;;;;12.89;65.67;100612.97;5070185;28;20559;-65
2021/11/13 00:14:34;;;;;;;58.40;35.23;;;;;;;12.93;65.04;100608.44;5078236;28;20079;-69
2021/11/13 00:17:02;;;;;;;69.47;33.90;;;;;;;13.05;64.69;100605.25;5069616;28;20088;-63
2021/11/13 00:19:30;;;;;;;60.97;33.27;;;;;;;13.19;64.71;100622.19;5075016;28;20179;-64
2021/11/13 00:21:57;;;;;;;65.63;35.67;;;;;;;13.21;64.57;100614.34;5069456;28;20080;-65
2021/11/13 00:24:25;;;;;;;66.80;36.87;;;;;;;13.26;64.26;100633.94;5071694;28;20578;-65
2021/11/13 00:26:52;;;;;;;64.13;36.00;;;;;;;13.23;63.89;100624.13;5072451;28;20076;-68
2021/11/13 00:29:19;;;;;;;67.00;39.10;;;;;;;13.20;63.84;100632.31;5069304;28;20099;-67
2021/11/13 00:31:46;;;;;;;71.87;40.27;;;;;;;13.13;63.93;100628.97;5064407;28;20607;-68
2021/11/13 00:34:13;;;;;;;73.63;41.60;;;;;;;13.19;64.00;100633.41;5071077;28;20098;-67
2021/11/13 00:36:39;;;;;;;81.87;39.27;;;;;;;13.08;63.92;100615.03;5071918;28;20080;-66
2021/11/13 00:39:06;;;;;;;66.87;35.77;;;;;;;13.05;64.09;100602.44;5071412;28;20190;-66
2021/11/13 00:41:34;;;;;;;56.03;30.73;;;;;;;13.09;64.79;100622.31;5070559;28;20048;-65
2021/11/13 00:44:01;;;;;;;54.57;30.93;;;;;;;12.97;65.69;100623.53;5068354;28;20072;-64
2021/11/13 00:46:28;;;;;;;50.00;27.27;;;;;;;12.86;66.03;100607.97;5068950;28;20472;-64
2021/11/13 00:48:55;;;;;;;52.90;28.43;;;;;;;13.09;65.52;100622.31;5079431;28;20128;-63
2021/11/13 00:51:22;;;;;;;60.00;34.33;;;;;;;13.18;64.80;100635.38;5067431;28;20136;-60
2021/11/13 00:53:49;;;;;;;59.23;33.87;;;;;;;13.11;64.23;100617.25;5071369;28;20132;-61
2021/11/13 00:56:16;;;;;;;59.67;35.37;;;;;;;13.20;63.90;100632.31;5069799;28;20131;-61
2021/11/13 00:58:42;;;;;;;57.03;35.53;;;;;;;13.17;63.88;100625.31;5071947;28;20068;-61
2021/11/13 01:01:09;;;;;;;60.13;34.13;;;;;;;13.18;63.81;100626.97;5070762;28;20075;-61
2021/11/13 01:03:37;;;;;;;62.00;31.73;;;;;;;13.14;63.95;100614.69;5074371;28;20242;-60
2021/11/13 01:06:04;;;;;;;56.40;29.53;;;;;;;13.22;63.89;100616.00;5070321;28;20179;-60
2021/11/13 01:08:31;;;;;;;51.83;27.37;;;;;;;13.38;64.36;100625.13;5067324;28;20131;-61
2021/11/13 01:10:57;;;;;;;45.30;23.60;;;;;;;13.22;64.46;100601.97;5072191;28;20502;-60
2021/11/13 01:13:24;;;;;;;51.33;24.43;;;;;;;13.29;64.87;100613.72;5072849;28;20191;-61
2021/11/13 01:15:52;;;;;;;47.67;25.17;;;;;;;13.42;64.52;100620.59;5064559;28;20072;-61
2021/11/13 01:18:19;;;;;;;56.70;29.00;;;;;;;13.38;64.08;100608.31;5086837;28;20131;-60
2021/11/13 01:20:46;;;;;;;62.47;31.03;;;;;;;13.50;63.70;100620.78;5092750;28;20067;-60
2021/11/13 01:23:14;;;;;;;55.93;30.17;;;;;;;13.48;63.93;100619.41;5091029;28;20083;-62
2021/11/13 01:25:41;;;;;;;54.70;27.20;;;;;;;13.35;64.32;100625.72;5086326;28;20071;-62
2021/11/13 01:28:08;;;;;;;43.73;25.57;;;;;;;13.17;64.76;100624.47;5073452;28;20150;-63
2021/11/13 01:30:35;;;;;;;55.70;27.40;;;;;;;13.21;64.66;100619.94;5089540;28;20082;-61
2021/11/13 01:33:02;;;;;;;53.77;28.10;;;;;;;13.22;64.42;100621.59;5091460;28;20139;-62
2021/11/13 01:35:29;;;;;;;48.90;25.87;;;;;;;13.24;64.57;100630.59;5090599;28;20131;-63
2021/11/13 01:37:56;;;;;;;44.83;26.63;;;;;;;13.07;64.54;100607.75;5092833;28;20300;-63
2021/11/13 01:40:25;;;;;;;50.67;27.30;;;;;;;13.09;64.59;100611.09;5081796;28;20063;-61
2021/11/13 01:42:57;;;;;;;47.97;26.93;;;;;;;12.99;64.58;100601.66;5076245;28;20411;-66
2021/11/13 01:45:25;;;;;;;44.43;25.90;;;;;;;13.19;64.29;100617.41;5085142;28;20303;-62
2021/11/13 01:47:53;;;;;;;46.57;23.83;;;;;;;13.28;64.28;100606.44;5082020;28;20127;-60
2021/11/13 01:50:25;;;;;;;48.63;24.80;;;;;;;13.27;64.03;100590.75;5087866;28;20067;-60
2021/11/13 01:52:52;;;;;;;50.23;23.53;;;;;;;13.35;63.98;100598.50;5087715;28;20554;-60
2021/11/13 01:55:21;;;;;;;40.10;23.57;;;;;;;13.40;63.90;100603.22;5093119;28;20135;-58
2021/11/13 01:57:49;;;;;;;49.95;26.95;;;;;;;13.45;63.81;100601.19;5083658;28;20471;-59
2021/11/13 02:00:23;;;;;;;48.73;26.33;;;;;;;13.31;63.09;100585.38;5081992;28;20123;-59
2021/11/13 02:02:50;;;;;;;44.63;22.97;;;;;;;13.21;63.16;100581.53;5082089;28;20079;-59
2021/11/13 02:05:18;;;;;;;47.60;26.77;;;;;;;13.27;63.24;100585.16;5089853;28;20083;-59
2021/11/13 02:07:44;;;;;;;42.17;23.47;;;;;;;12.99;63.82;100573.63;5087261;28;20127;-60
2021/11/13 02:10:13;;;;;;;45.03;20.80;;;;;;;12.89;64.57;100579.34;5088297;28;20080;-60
2021/11/13 02:12:40;;;;;;;40.80;22.27;;;;;;;12.85;64.97;100578.25;5085132;28;20048;-61
2021/11/13 02:15:08;;;;;;;36.80;22.20;;;;;;;12.75;64.94;100562.38;5075967;28;20082;-64
2021/11/13 02:17:35;;;;;;;41.80;24.60;;;;;;;13.00;64.47;100592.13;5092281;28;20131;-64
2021/11/13 02:20:26;;;;;;;50.93;26.07;;;;;;;12.95;63.69;100577.31;5076909;28;20128;-64
2021/11/13 02:22:56;;;;;;;52.37;28.70;;;;;;;12.86;62.96;100563.13;5076392;28;20148;-64
2021/11/13 02:25:24;;;;;;;;;;;;;;;13.01;62.90;100592.94;5077526;28;20067;-64
2021/11/13 02:27:52;;;;;;;50.80;31.37;;;;;;;12.71;62.36;100561.28;5073399;28;19959;-63
2021/11/13 02:30:19;;;;;;;52.23;31.20;;;;;;;12.64;62.26;100555.19;5072633;28;20131;-60
2021/11/13 02:32:48;;;;;;;56.67;33.07;;;;;;;12.69;62.11;100576.75;5071322;28;20144;-64
2021/11/13 02:35:17;;;;;;;65.90;34.23;;;;;;;12.70;62.31;100586.81;5071905;28;20468;-63
2021/11/13 02:37:45;;;;;;;59.77;36.13;;;;;;;12.54;62.34;100583.28;5080421;28;20135;-63
2021/11/13 02:40:12;;;;;;;62.10;32.37;;;;;;;12.53;62.40;100599.28;5072441;28;20083;-62
2021/11/13 02:42:40;;;;;;;62.50;34.90;;;;;;;12.40;62.41;100593.50;5065753;28;20131;-62
2021/11/13 02:45:10;;;;;;;57.10;33.10;;;;;;;12.37;62.53;100599.69;5071334;28;20054;-63
2021/11/13 02:47:48;;;;;;;63.07;34.70;;;;;;;12.24;62.48;100598.34;5072612;28;20124;-63
2021/11/13 02:50:17;;;;;;;63.77;35.17;;;;;;;12.21;62.52;100596.16;5072269;28;20132;-67
2021/11/13 02:52:55;;;;;;;72.40;36.93;;;;;;;12.14;62.55;100606.84;5070185;28;20051;-66
2021/11/13 02:55:23;;;;;;;67.47;35.60;;;;;;;12.14;62.66;100601.25;5069920;28;20139;-64
2021/11/13 02:57:51;;;;;;;49.10;31.40;;;;;;;12.09;62.68;100605.75;5070392;28;20076;-62
2021/11/13 03:00:23;;;;;;;57.00;32.33;;;;;;;12.01;62.88;100603.56;5072246;28;20135;-63
2021/11/13 03:02:50;;;;;;;56.37;31.93;;;;;;;12.00;62.86;100613.09;5073011;28;20135;-63
2021/11/13 03:05:33;;;;;;;58.87;30.90;;;;;;;11.84;63.05;100569.53;5065873;28;20075;-61
2021/11/13 03:08:05;;;;;;;54.30;31.43;;;;;;;12.08;63.17;100609.69;5074303;28;20132;-62
2021/11/13 03:10:34;;;;;;;40.97;22.97;;;;;;;12.11;63.43;100608.25;5071904;28;20466;-62
2021/11/13 03:13:01;;;;;;;46.90;24.10;;;;;;;12.16;63.51;100613.81;5071693;28;20075;-62
2021/11/13 03:15:29;;;;;;;56.93;29.10;;;;;;;12.20;63.71;100608.47;5071825;28;20147;-62
2021/11/13 03:17:57;;;;;;;51.97;28.80;;;;;;;12.21;63.68;100607.38;5071711;28;20052;-63
2021/11/13 03:20:28;;;;;;;36.17;22.47;;;;;;;12.22;64.50;100603.44;5073410;28;20452;-60
2021/11/13 03:22:58;;;;;;;58.10;29.47;;;;;;;12.35;65.01;100597.19;5081115;28;20135;-60
2021/11/13 03:25:33;;;;;;;;;;;;;;;12.38;64.08;100595.78;5071559;28;20044;-60
2021/11/13 03:28:04;;;;;;;40.07;22.73;;;;;;;12.30;64.67;100595.25;5074632;28;20024;-60
2021/11/13 03:30:32;;;;;;;38.53;21.60;;;;;;;12.39;64.59;100594.63;5071403;28;20040;-58
2021/11/13 03:32:58;;;;;;;38.90;21.67;;;;;;;12.41;64.57;100609.16;5075861;28;20068;-58
2021/11/13 03:35:29;;;;;;;33.07;19.40;;;;;;;12.34;64.54;100589.88;5083260;28;20465;-60
2021/11/13 03:38:02;;;;;;;40.93;20.00;;;;;;;12.38;64.69;100598.56;5070975;28;20127;-58
2021/11/13 03:40:29;;;;;;;36.27;19.57;;;;;;;12.34;64.60;100589.88;5070239;28;20072;-58
2021/11/13 03:42:56;;;;;;;36.00;19.30;;;;;;;12.23;64.59;100557.50;5069647;28;20136;-58
2021/11/13 03:45:23;;;;;;;31.47;19.03;;;;;;;12.54;64.29;100598.13;5070926;28;20078;-58
2021/11/13 03:47:50;;;;;;;34.40;18.90;;;;;;;12.53;64.07;100599.28;5061981;28;20086;-58
2021/11/13 03:50:17;;;;;;;39.73;20.20;;;;;;;12.58;64.17;100606.81;5063513;28;20488;-58
2021/11/13 03:52:44;;;;;;;37.13;20.80;;;;;;;12.55;64.02;100597.03;5057930;28;20083;-58
2021/11/13 03:55:11;;;;;;;30.00;16.53;;;;;;;12.64;63.80;100601.97;5066149;28;20127;-58
2021/11/13 03:57:38;;;;;;;39.73;19.50;;;;;;;12.63;63.51;100608.72;5079689;28;20083;-59
2021/11/13 04:00:06;;;;;;;38.80;19.83;;;;;;;12.49;63.46;100592.59;5082568;28;20083;-59
2021/11/13 04:02:34;;;;;;;38.50;20.57;;;;;;;12.60;63.52;100609.31;5069850;28;20183;-61
2021/11/13 04:05:00;;;;;;;33.97;20.60;;;;;;;12.45;63.42;100597.09;5079660;28;20083;-60
2021/11/13 04:07:27;;;;;;;34.30;19.27;;;;;;;12.54;63.19;100614.09;5075559;28;20076;-58
2021/11/13 04:09:54;;;;;;;36.43;20.83;;;;;;;12.53;63.13;100624.47;5069808;28;20044;-58
2021/11/13 04:12:21;;;;;;;37.63;20.10;;;;;;;12.50;63.25;100616.66;5062512;28;20072;-57
2021/11/13 04:14:48;;;;;;;34.93;18.00;;;;;;;12.55;63.37;100618.59;5070390;28;20131;-58
2021/11/13 04:17:14;;;;;;;30.97;17.20;;;;;;;12.43;63.56;100604.94;5067654;28;20084;-58
2021/11/13 04:19:41;;;;;;;28.77;15.43;;;;;;;12.25;63.97;100597.25;5075104;28;20072;-58
2021/11/13 04:22:08;;;;;;;32.10;15.83;;;;;;;12.28;64.40;100621.88;5073949;28;20131;-58
2021/11/13 04:24:35;;;;;;;32.30;16.53;;;;;;;12.13;64.38;100611.59;5073658;28;20452;-57
2021/11/13 04:27:02;;;;;;;31.60;15.83;;;;;;;11.72;64.74;100571.78;5072139;28;20083;-58
2021/11/13 04:29:29;;;;;;;25.13;14.93;;;;;;;11.84;64.96;100605.91;5072928;28;20136;-58
2021/11/13 04:31:56;;;;;;;27.53;14.60;;;;;;;11.81;65.33;100615.66;5069309;28;20135;-58
2021/11/13 04:34:24;;;;;;;26.10;15.33;;;;;;;11.74;65.34;100614.31;5070836;28;20167;-57
2021/11/13 04:36:54;;;;;;;33.80;16.10;;;;;;;11.72;65.58;100617.38;5078483;28;20048;-61
2021/11/13 04:39:24;;;;;;;26.33;15.50;;;;;;;11.70;65.58;100616.84;5070287;28;20128;-60
2021/11/13 04:41:54;;;;;;;30.87;14.50;;;;;;;11.44;65.82;100581.72;5069641;28;20053;-61
2021/11/13 04:44:21;;;;;;;21.17;12.95;;;;;;;11.75;65.40;100615.97;5069506;28;20053;-60
2021/11/13 04:46:48;;;;;;;27.63;13.93;;;;;;;11.78;65.16;100615.41;5069696;28;20178;-60
2021/11/13 04:49:15;;;;;;;26.83;14.27;;;;;;;11.78;64.88;100609.81;5076157;28;20097;-60
2021/11/13 04:51:42;;;;;;;28.30;14.30;;;;;;;11.97;64.49;100618.44;5068809;28;20131;-59
2021/11/13 04:54:09;;;;;;;24.50;15.33;;;;;;;12.09;64.16;100633.72;5073231;28;20119;-60
2021/11/13 04:56:37;;;;;;;26.10;15.53;;;;;;;12.18;63.83;100616.34;5078790;28;20460;-61
2021/11/13 04:59:05;;;;;;;27.00;16.13;;;;;;;12.18;63.70;100613.53;5080831;28;20190;-60
2021/11/13 05:01:32;;;;;;;27.07;15.40;;;;;;;12.23;63.40;100616.28;5072926;28;20075;-60
2021/11/13 05:03:59;;;;;;;29.47;16.37;;;;;;;12.25;63.35;100625.25;5080274;28;20084;-61
2021/11/13 05:06:28;;;;;;;25.67;15.47;;;;;;;12.25;63.36;100622.47;5081005;28;20047;-61
2021/11/13 05:08:57;;;;;;;30.03;16.30;;;;;;;12.23;63.24;100630.28;5073384;28;20083;-61
2021/11/13 05:11:24;;;;;;;27.37;15.17;;;;;;;12.21;63.20;100635.38;5071713;28;20136;-60
2021/11/13 05:13:52;;;;;;;23.23;13.60;;;;;;;12.17;63.64;100628.66;5077581;28;20049;-60
2021/11/13 05:16:19;;;;;;;18.03;10.37;;;;;;;11.98;64.22;100609.72;5074354;28;23264;-61
2021/11/13 05:18:46;;;;;;;19.00;12.53;;;;;;;12.03;64.78;100625.66;5076053;28;20040;-61
2021/11/13 05:21:14;;;;;;;19.87;12.43;;;;;;;12.05;64.72;100629.00;5073243;28;20076;-61
2021/11/13 05:23:42;;;;;;;24.97;12.13;;;;;;;12.24;64.34;100640.38;5075370;28;20154;-61
2021/11/13 05:26:09;;;;;;;23.10;13.67;;;;;;;12.35;63.95;100627.16;5073605;28;20152;-61
2021/11/13 05:28:37;;;;;;;26.20;13.17;;;;;;;12.32;63.61;100637.78;5071335;28;20432;-62
2021/11/13 05:31:04;;;;;;;21.87;13.57;;;;;;;12.34;63.29;100629.09;5072749;28;20461;-63
2021/11/13 05:33:31;;;;;;;20.53;10.40;;;;;;;12.32;63.60;100631.38;5071573;28;20086;-63
2021/11/13 05:36:02;;;;;;;17.97;10.77;;;;;;;12.31;63.69;100624.09;5073277;28;20519;-68
2021/11/13 05:38:29;;;;;;;24.60;12.57;;;;;;;12.35;63.61;100630.78;5069469;28;20151;-62
2021/11/13 05:40:56;;;;;;;22.30;12.93;;;;;;;12.32;63.83;100631.38;5067586;28;20575;-62
2021/11/13 05:43:23;;;;;;;20.83;11.97;;;;;;;12.24;63.78;100624.44;5072289;28;20099;-63
2021/11/13 05:45:50;;;;;;;20.47;11.83;;;;;;;11.91;64.03;100594.41;5073353;28;20076;-62
2021/11/13 05:48:17;;;;;;;18.97;10.53;;;;;;;12.08;64.27;100626.47;5071672;28;20049;-62
2021/11/13 05:50:45;;;;;;;27.00;12.93;;;;;;;12.10;64.44;100623.38;5066221;28;20449;-59
2021/11/13 05:53:12;;;;;;;21.40;12.27;;;;;;;12.20;63.95;100628.06;5071232;28;20080;-66
2021/11/13 05:55:40;;;;;;;25.83;13.03;;;;;;;12.22;63.60;100615.47;5066985;28;20124;-64
2021/11/13 05:58:14;;;;;;;24.13;12.97;;;;;;;12.23;63.26;100622.72;5069901;28;20452;-67
2021/11/13 06:00:41;;;;;;;23.63;12.00;;;;;;;12.19;63.36;100609.63;5070803;28;20047;-67
2021/11/13 06:03:08;;;;;;;23.70;10.93;;;;;;;12.24;63.66;100637.56;5069368;28;20115;-67
2021/11/13 06:05:35;;;;;;;22.03;10.87;;;;;;;12.08;63.57;100604.06;5074900;28;20067;-67
2021/11/13 06:08:02;;;;;;;19.70;12.03;;;;;;;12.34;63.18;100634.69;5072404;28;20080;-67
2021/11/13 06:10:29;;;;;;;21.70;11.37;;;;;;;12.33;63.17;100638.63;5071174;28;20135;-62
2021/11/13 06:12:56;;;;;;;24.80;11.97;;;;;;;12.27;63.12;100634.19;5069860;28;20500;-61
2021/11/13 06:15:23;;;;;;;15.80;9.53;;;;;;;12.38;63.01;100641.41;5071715;28;20155;-59
2021/11/13 06:17:50;;;;;;;19.90;9.57;;;;;;;12.31;63.15;100632.50;5071598;28;20264;-60
2021/11/13 06:20:17;;;;;;;19.63;10.10;;;;;;;12.41;63.27;100640.84;5069300;28;20139;-58
2021/11/13 06:22:44;;;;;;;19.57;10.57;;;;;;;12.37;62.90;100628.50;5072659;28;20683;-58
2021/11/13 06:25:13;;;;;;;14.87;9.97;;;;;;;12.29;63.41;100634.75;5073508;28;20147;-59
2021/11/13 06:27:40;;;;;;;18.97;10.47;;;;;;;12.24;63.78;100637.56;5054395;28;20282;-59
2021/11/13 06:30:11;;;;;;;16.43;10.17;;;;;;;12.14;63.92;100630.09;5071904;28;20128;-59
2021/11/13 06:32:38;;;;;;;19.92;10.30;;;;;;;12.12;63.87;100621.13;5065121;28;20120;-58
2021/11/13 06:35:08;;;;;;;21.53;10.23;;;;;;;12.21;63.93;100640.97;5074003;28;20079;-58
2021/11/13 06:37:36;;;;;;;15.33;8.80;;;;;;;12.33;63.29;100650.66;5072875;28;20222;-55
2021/11/13 06:40:05;;;;;;;18.73;9.27;;;;;;;12.42;63.07;100647.28;5071769;28;20396;-60
2021/11/13 06:42:33;;;;;;;15.07;9.80;;;;;;;12.54;62.75;100648.56;5073922;28;20475;-60
2021/11/13 06:45:00;;;;;;;20.33;12.03;;;;;;;12.61;62.12;100655.78;5071192;28;20056;-60
2021/11/13 06:47:27;;;;;;;20.50;12.37;;;;;;;12.60;61.94;100660.56;5072222;28;20532;-60
2021/11/13 06:49:53;;;;;;;22.23;11.83;;;;;;;12.55;61.72;100658.66;5071582;28;20480;-60
2021/11/13 06:52:20;;;;;;;21.47;11.50;;;;;;;12.38;61.86;100652.63;5065801;28;20473;-60
2021/11/13 06:54:47;;;;;;;21.93;12.23;;;;;;;12.28;62.26;100652.69;5077825;28;20143;-60
2021/11/13 06:57:14;;;;;;;18.47;9.73;;;;;;;12.21;62.55;100646.56;5090827;28;20624;-60
2021/11/13 06:59:41;;;;;;;13.70;8.20;;;;;;;12.27;62.77;100667.78;5068890;28;20449;-60
2021/11/13 07:02:08;;;;;;;19.90;9.03;;;;;;;12.22;62.82;100676.22;5064685;28;20128;-60
2021/11/13 07:04:36;;;;;;;21.23;10.50;;;;;;;12.28;62.95;100684.31;5073809;28;20482;-60
2021/11/13 07:07:03;;;;;;;15.63;10.03;;;;;;;12.19;62.85;100682.41;5066391;28;20510;-60
2021/11/13 07:09:30;;;;;;;18.03;9.23;;;;;;;12.11;63.21;100681.06;5069149;28;20162;-60
2021/11/13 07:12:02;;;;;;;12.47;7.03;;;;;;;12.17;62.71;100684.63;5070172;28;20127;-60
2021/11/13 07:14:28;;;;;;;13.47;7.77;;;;;;;12.19;63.04;100682.41;5071214;28;20135;-60
2021/11/13 07:16:55;;;;;;;16.57;7.77;;;;;;;12.14;63.40;100686.06;5070846;28;20128;-60
2021/11/13 07:19:22;;;;;;;13.60;7.30;;;;;;;12.12;63.35;100693.09;5071101;28;20139;-60
2021/11/13 07:21:49;;;;;;;15.00;8.40;;;;;;;12.09;63.40;100689.72;5074955;28;20044;-59
2021/11/13 07:24:17;;;;;;;18.00;7.40;;;;;;;12.08;63.50;100693.66;5069305;28;20048;-60
2021/11/13 07:26:51;;;;;;;13.70;6.50;;;;;;;12.14;63.16;100693.63;5069752;28;22953;-60
2021/11/13 07:29:19;;;;;;;15.93;7.47;;;;;;;12.25;62.96;100692.47;5069074;28;20078;-61
2021/11/13 07:31:46;;;;;;;14.10;7.00;;;;;;;12.35;62.67;100709.19;5066238;28;20080;-60
2021/11/13 07:34:13;;;;;;;14.43;7.77;;;;;;;12.43;62.65;100716.97;5071988;28;20080;-60
2021/11/13 07:36:40;;;;;;;14.80;7.93;;;;;;;12.30;62.75;100715.66;5074042;28;20071;-60
2021/11/13 07:39:07;;;;;;;13.97;7.60;;;;;;;12.17;63.04;100704.25;5068345;28;20147;-60
2021/11/13 07:41:34;;;;;;;12.43;6.80;;;;;;;12.33;63.05;100728.25;5071126;28;20040;-60
2021/11/13 07:44:03;;;;;;;15.47;8.00;;;;;;;12.30;62.77;100686.81;5069768;28;20131;-60
2021/11/13 07:46:30;;;;;;;15.17;7.57;;;;;;;12.79;62.39;100725.16;5070206;28;20080;-60
2021/11/13 07:48:57;;;;;;;15.17;8.53;;;;;;;12.83;61.83;100698.22;5068991;28;20095;-61
2021/11/13 07:51:24;;;;;;;11.43;7.87;;;;;;;13.28;61.73;100741.06;5070555;28;20071;-60
2021/11/13 07:53:51;;;;;;;13.87;8.70;;;;;;;13.51;61.13;100731.88;5064613;28;20488;-61
2021/11/13 07:56:18;;;;;;;17.50;8.57;;;;;;;13.63;60.83;100713.78;5062732;28;20477;-59
2021/11/13 07:58:45;;;;;;;16.07;7.77;;;;;;;13.85;60.64;100727.31;5058858;28;20076;-60
2021/11/13 08:01:12;;;;;;;13.57;7.13;;;;;;;13.90;60.38;100736.47;5067250;28;20142;-59
2021/11/13 08:03:39;;;;;;;12.67;7.53;;;;;;;13.91;60.05;100735.38;5068957;28;20048;-59
2021/11/13 08:06:06;;;;;;;11.07;6.10;;;;;;;13.92;59.79;100731.41;5063906;28;20464;-58
2021/11/13 08:08:33;;;;;;;13.53;7.90;;;;;;;14.04;59.45;100728.19;5063003;28;20072;-59
2021/11/13 08:11:01;;;;;;;19.07;10.17;;;;;;;14.33;59.17;100747.75;5062807;28;20572;-60
2021/11/13 08:13:28;;;;;;;18.77;8.87;;;;;;;14.51;58.83;100745.31;5066229;28;20136;-60
2021/11/13 08:15:55;;;;;;;10.13;6.43;;;;;;;14.77;58.44;100746.63;5050776;28;20501;-59
2021/11/13 08:18:22;;;;;;;15.63;7.70;;;;;;;15.00;57.54;100749.63;5060782;28;20128;-58
2021/11/13 08:20:50;;;;;;;16.73;8.88;;;;;;;15.06;56.91;100726.75;5071313;28;20076;-54
2021/11/13 08:23:18;;;;;;;15.53;9.17;;;;;;;15.53;56.24;100746.50;5065053;28;20045;-56
2021/11/13 08:25:45;;;;;;;17.13;8.83;;;;;;;15.83;56.03;100745.13;5061843;28;20123;-58
2021/11/13 08:28:13;;;;;;;13.95;8.57;;;;;;;16.28;55.59;100751.81;5051807;28;20072;-57
2021/11/13 08:30:43;;;;;;;13.57;8.07;;;;;;;16.77;54.60;100746.53;5049676;28;20044;-58
2021/11/13 08:33:10;;;;;;;16.40;9.07;;;;;;;17.12;54.62;100724.25;5066264;28;20074;-58
2021/11/13 08:35:39;;;;;;;16.50;10.73;;;;;;;17.94;53.44;100752.00;5070057;28;20148;-58
2021/11/13 08:38:09;;;;;;;13.48;8.75;;;;;;;18.58;53.19;100754.38;5057300;28;20076;-57
2021/11/13 08:40:35;;;;;;;11.40;6.78;;;;;;;19.21;52.64;100754.13;5063469;28;20144;-59
2021/11/13 08:43:02;;;;;;;11.00;6.43;;;;;;;19.78;51.50;100762.38;5063047;28;20132;-58
2021/11/13 08:45:30;;;;;;;10.60;7.18;;;;;;;20.35;50.67;100765.66;5058686;28;20128;-56
2021/11/13 08:47:57;;;;;;;12.65;7.20;;;;;;;20.86;49.64;100762.88;5049033;28;20068;-58
2021/11/13 08:50:26;;;;;;;10.85;6.25;;;;;;;21.13;48.96;100754.97;5075009;28;20883;-58
2021/11/13 08:52:56;;;;;;;16.15;7.88;;;;;;;21.06;47.84;100756.38;5082801;28;20072;-58
2021/11/13 08:55:26;;;;;;;12.63;7.45;;;;;;;21.21;47.09;100754.09;5068715;28;20068;-58
2021/11/13 08:57:54;;;;;;;12.93;6.80;;;;;;;21.49;45.88;100757.19;5067250;28;20542;-58
2021/11/13 09:00:45;;;;;;;10.63;6.72;;;;;;;21.63;46.53;100754.03;5068044;28;20131;-55
2021/11/13 09:03:21;;;;;;;11.25;7.03;;;;;;;22.15;45.81;100725.00;5072547;28;20135;-58
2021/11/13 09:05:48;;;;;;;11.90;6.50;;;;;;;22.77;44.84;100742.84;5075446;28;20082;-55
2021/11/13 09:08:15;;;;;;;12.60;7.75;;;;;;;23.19;43.41;100743.38;5084307;28;20131;-54
2021/11/13 09:10:44;;;;;;;12.07;7.00;;;;;;;23.67;43.45;100752.91;5067726;28;20128;-54
2021/11/13 09:13:11;;;;;;;9.73;6.65;;;;;;;24.28;42.23;100766.78;5063617;28;20045;-56
2021/11/13 09:15:40;;;;;;;14.23;7.35;;;;;;;24.85;40.97;100760.84;5077759;28;20120;-55
2021/11/13 09:18:08;;;;;;;11.38;7.95;;;;;;;25.31;40.08;100756.19;5071235;28;20091;-55
2021/11/13 09:20:36;;;;;;;12.45;7.10;;;;;;;25.75;39.30;100762.41;5069959;28;20096;-54
2021/11/13 09:23:05;;;;;;;11.13;8.20;;;;;;;26.00;38.54;100754.31;5070472;28;20079;-55
2021/11/13 09:25:32;;;;;;;13.07;8.50;;;;;;;26.03;37.56;100769.91;5071262;28;20392;-56
2021/11/13 09:28:01;;;;;;;14.50;8.95;;;;;;;26.28;37.27;100758.88;5061612;28;20123;-55
2021/11/13 09:30:31;;;;;;;10.93;7.63;;;;;;;26.41;37.02;100748.06;5075641;28;20136;-54
2021/11/13 09:32:59;;;;;;;11.80;7.25;;;;;;;26.50;36.61;100762.97;5073042;28;20124;-54
2021/11/13 09:35:26;;;;;;;9.65;7.50;;;;;;;26.43;36.65;100771.41;5074803;28;20075;-55
2021/11/13 09:38:13;;;;;;;10.55;7.03;;;;;;;26.43;36.54;100766.50;5076247;28;20049;-53
2021/11/13 09:40:40;;;;;;;11.45;7.18;;;;;;;26.46;36.04;100764.91;5075087;28;20068;-54
2021/11/13 09:43:07;;;;;;;9.23;6.50;;;;;;;26.59;35.68;100756.97;5074036;28;20130;-54
2021/11/13 09:45:37;;;;;;;11.15;7.80;;;;;;;26.74;35.27;100758.84;5086055;28;20500;-54
2021/11/13 09:48:05;;;;;;;10.23;6.80;;;;;;;26.79;35.37;100744.19;5084101;28;20044;-52
2021/11/13 09:50:36;;;;;;;9.32;6.28;;;;;;;27.07;34.54;100755.22;5082711;28;20052;-54
2021/11/13 09:53:05;;;;;;;9.88;7.10;;;;;;;27.18;34.32;100758.28;5074682;28;20075;-54
2021/11/13 09:55:33;;;;;;;13.50;7.20;;;;;;;27.24;34.34;100755.88;5074365;28;20467;-54
2021/11/13 09:58:00;;;;;;;13.63;7.40;;;;;;;27.46;33.62;100762.72;5057063;28;20459;-54
2021/11/13 10:00:30;;;;;;;12.65;7.03;;;;;;;27.48;32.98;100729.56;5076277;28;20140;-53
2021/11/13 10:02:58;;;;;;;10.55;7.70;;;;;;;27.24;32.86;100745.22;5074552;28;20045;-53
2021/11/13 10:05:25;;;;;;;11.02;6.53;;;;;;;27.07;33.00;100737.19;5088251;28;20131;-54
2021/11/13 10:07:52;;;;;;;11.32;7.70;;;;;;;27.11;33.36;100763.84;5080877;28;20480;-55
2021/11/13 10:10:33;;;;;;;11.30;6.97;;;;;;;27.26;33.63;100751.41;5074060;28;20409;-55
2021/11/13 10:13:02;;;;;;;8.95;6.95;;;;;;;27.60;32.79;100749.38;5073378;28;20135;-54
2021/11/13 10:15:38;;;;;;;14.20;7.55;;;;;;;27.74;33.19;100750.75;5081664;28;20048;-54
2021/11/13 10:18:17;;;;;;;15.00;9.20;;;;;;;27.75;32.92;100755.28;5094041;28;20117;-55
2021/11/13 10:21:09;;;;;;;12.32;8.25;;;;;;;27.60;32.89;100742.81;5094234;28;20090;-55
2021/11/13 10:23:42;;;;;;;11.63;7.70;;;;;;;27.49;32.77;100754.16;5094010;28;20102;-55
2021/11/13 10:26:15;;;;;;;11.45;7.57;;;;;;;26.99;32.03;100759.22;5077319;28;20079;-56
2021/11/13 10:28:50;;;;;;;12.80;8.02;;;;;;;26.80;32.58;100748.69;5087293;28;20079;-54
2021/11/13 10:31:42;;;;;;;9.85;7.88;;;;;;;26.96;32.75;100736.22;5103217;28;20122;-55
2021/11/13 10:34:13;;;;;;;12.00;6.80;;;;;;;27.29;32.24;100729.75;5101218;28;20051;-61
2021/11/13 10:36:47;;;;;;;8.50;6.45;;;;;;;27.42;32.04;100739.75;5096531;28;20246;-55
2021/11/13 10:39:15;;;;;;;9.52;7.22;;;;;;;27.35;31.81;100742.50;5107028;28;20488;-55
2021/11/13 10:41:48;;;;;;;12.25;7.22;;;;;;;27.56;32.05;100739.09;5106495;28;20044;-54
2021/11/13 10:44:22;;;;;;;8.98;7.25;;;;;;;28.04;31.32;100742.91;5078437;28;20136;-54
2021/11/13 10:46:49;;;;;;;10.27;7.15;;;;;;;28.51;30.89;100749.91;5094256;28;20470;-54
2021/11/13 10:49:16;;;;;;;12.57;8.13;;;;;;;28.88;30.46;100736.59;5092378;28;20408;-53
2021/11/13 10:51:50;;;;;;;11.02;7.35;;;;;;;29.11;30.22;100740.03;5102148;28;20095;-53
2021/11/13 10:54:18;;;;;;;11.20;7.88;;;;;;;29.38;29.62;100734.00;5098973;28;20079;-54
2021/11/13 10:56:54;;;;;;;12.45;7.93;;;;;;;29.66;30.10;100741.94;5089162;28;20135;-54
2021/11/13 10:59:29;;;;;;;10.18;7.07;;;;;;;29.92;29.10;100735.81;5090334;28;20143;-54
2021/11/13 11:01:59;;;;;;;13.38;7.93;;;;;;;30.20;28.43;100735.06;5094926;28;20415;-55
2021/11/13 11:04:29;;;;;;;10.88;7.22;;;;;;;30.14;27.90;100735.84;5097523;28;20050;-54
2021/11/13 11:07:04;;;;;;;9.65;7.22;;;;;;;29.68;27.74;100739.47;5101545;28;20083;-53
2021/11/13 11:09:40;;;;;;;10.48;7.15;;;;;;;29.20;28.33;100743.38;5107845;28;20075;-54
2021/11/13 11:12:13;;;;;;;10.65;7.15;;;;;;;29.32;28.67;100747.94;5097181;28;20164;-54
2021/11/13 11:14:45;;;;;;;10.52;7.82;;;;;;;29.71;28.16;100738.63;5095743;28;20040;-52
2021/11/13 11:17:15;;;;;;;11.50;7.88;;;;;;;30.01;27.23;100723.91;5091374;28;20132;-53
2021/11/13 11:19:50;;;;;;;12.88;8.40;;;;;;;30.55;27.75;100732.56;5093227;28;20590;-54
2021/11/13 11:22:23;;;;;;;10.30;7.38;;;;;;;31.17;26.80;100732.03;5092095;28;20044;-53